Time;durP1;ratioP1;P1;durP2;ratioP2;P2;SDS_P1;SDS_P2;PMS_P1;PMS_P2;Temp;Humidity;BMP_temperature;BMP_pressure;BME280_temperature;BME280_humidity;BME280_pressure;Samples;Min_cycle;Max_cycle;Signal;HPM_P1;HPM_P2
2023/12/12 00:01:24;;;;;;;12.60;2.85;;;6.60;99.90;;;;;;4973974;28;20052;-58
2023/12/12 00:03:50;;;;;;;8.40;2.05;;;6.50;99.90;;;;;;4970037;28;20065;-58
2023/12/12 00:06:16;;;;;;;12.50;2.35;;;6.50;99.90;;;;;;4972659;28;20045;-58
2023/12/12 00:08:42;;;;;;;12.02;2.00;;;6.60;99.90;;;;;;4946681;28;20073;-57
2023/12/12 00:11:08;;;;;;;9.18;2.15;;;6.50;99.90;;;;;;4970994;28;20791;-59
2023/12/12 00:13:34;;;;;;;10.13;1.83;;;6.50;99.90;;;;;;4971617;28;20042;-58
2023/12/12 00:16:00;;;;;;;12.57;2.10;;;6.50;99.90;;;;;;4967621;28;20052;-59
2023/12/12 00:18:25;;;;;;;9.88;2.00;;;6.50;99.90;;;;;;4966534;28;20494;-58
2023/12/12 00:20:51;;;;;;;7.68;1.90;;;6.50;99.90;;;;;;4969114;28;20135;-58
2023/12/12 00:23:17;;;;;;;6.05;1.92;;;6.50;99.90;;;;;;4968494;28;20576;-59
2023/12/12 00:25:43;;;;;;;12.52;2.20;;;6.50;99.90;;;;;;4952749;28;20042;-58
2023/12/12 00:28:09;;;;;;;8.55;1.67;;;6.50;99.90;;;;;;4968034;28;24901;-59
2023/12/12 00:30:35;;;;;;;9.00;1.95;;;6.50;99.90;;;;;;4970837;28;20158;-59
2023/12/12 00:33:01;;;;;;;10.90;2.00;;;6.40;99.90;;;;;;4967808;28;20471;-58
2023/12/12 00:35:26;;;;;;;12.38;2.15;;;6.40;99.90;;;;;;4956638;28;20121;-58
2023/12/12 00:37:52;;;;;;;7.90;1.95;;;6.40;99.90;;;;;;4941780;28;20042;-58
2023/12/12 00:40:18;;;;;;;7.10;1.92;;;6.40;99.90;;;;;;4965644;28;20209;-58
2023/12/12 00:42:44;;;;;;;10.40;1.98;;;6.30;99.90;;;;;;4966799;28;20053;-59
2023/12/12 00:45:10;;;;;;;8.90;2.15;;;6.20;99.90;;;;;;4971645;28;20065;-59
2023/12/12 00:47:35;;;;;;;7.90;1.95;;;6.20;99.90;;;;;;4969808;28;20054;-57
2023/12/12 00:50:02;;;;;;;5.60;1.95;;;6.20;99.90;;;;;;4970565;28;20045;-58
2023/12/12 00:52:29;;;;;;;8.68;1.80;;;6.10;99.90;;;;;;4980081;28;20386;-59
2023/12/12 00:54:55;;;;;;;12.15;2.28;;;6.10;99.90;;;;;;4967223;28;20054;-57
2023/12/12 00:57:21;;;;;;;6.00;1.55;;;5.90;99.90;;;;;;4966507;28;20030;-59
2023/12/12 00:59:47;;;;;;;8.10;2.17;;;6.00;99.90;;;;;;4968927;28;20050;-59
2023/12/12 01:02:12;;;;;;;11.15;1.95;;;5.90;99.90;;;;;;4971649;28;20092;-58
2023/12/12 01:04:38;;;;;;;9.30;1.90;;;5.80;99.90;;;;;;4965848;28;20173;-57
2023/12/12 01:07:04;;;;;;;5.55;1.60;;;5.80;99.90;;;;;;4970013;28;20043;-58
2023/12/12 01:09:29;;;;;;;7.22;2.13;;;5.70;99.90;;;;;;4968505;28;20494;-59
2023/12/12 01:11:55;;;;;;;5.65;1.48;;;5.70;99.90;;;;;;4956642;28;20240;-58
2023/12/12 01:14:21;;;;;;;6.25;1.80;;;5.60;99.90;;;;;;4956840;28;20046;-58
2023/12/12 01:16:47;;;;;;;5.78;1.80;;;5.60;99.90;;;;;;4971469;28;21597;-57
2023/12/12 01:19:12;;;;;;;5.60;1.65;;;5.50;99.90;;;;;;4950147;28;20069;-58
2023/12/12 01:21:38;;;;;;;5.88;1.70;;;5.50;99.90;;;;;;4948461;28;20420;-58
2023/12/12 01:24:04;;;;;;;9.30;2.03;;;5.40;99.90;;;;;;4964297;28;20050;-57
2023/12/12 01:26:30;;;;;;;6.85;1.88;;;5.50;99.90;;;;;;4970528;28;20499;-58
2023/12/12 01:28:55;;;;;;;5.38;1.83;;;5.40;99.90;;;;;;4973001;28;20046;-57
2023/12/12 01:31:21;;;;;;;4.97;1.73;;;5.40;99.90;;;;;;4969749;28;20050;-57
2023/12/12 01:33:49;;;;;;;7.97;2.35;;;5.30;99.90;;;;;;4968676;28;20502;-56
2023/12/12 01:36:15;;;;;;;6.93;2.10;;;5.30;99.90;;;;;;4952581;28;20131;-58
2023/12/12 01:38:40;;;;;;;9.95;2.20;;;5.20;99.90;;;;;;4975100;28;20614;-57
2023/12/12 01:41:06;;;;;;;6.68;1.80;;;5.20;99.90;;;;;;4956641;28;20049;-57
2023/12/12 01:43:32;;;;;;;6.88;2.08;;;5.10;99.90;;;;;;4970893;28;20085;-57
2023/12/12 01:46:04;;;;;;;6.55;2.25;;;5.00;99.90;;;;;;4970355;28;20037;-57
2023/12/12 01:48:31;;;;;;;7.93;2.20;;;5.00;99.90;;;;;;4970783;28;20539;-58
2023/12/12 01:50:57;;;;;;;5.70;2.17;;;5.00;99.90;;;;;;4947789;28;20064;-58
2023/12/12 01:53:33;;;;;;;8.13;2.60;;;4.90;99.90;;;;;;4971402;28;20053;-58
2023/12/12 01:56:03;;;;;;;9.50;2.50;;;4.90;99.90;;;;;;4971153;28;20557;-58
2023/12/12 01:58:29;;;;;;;8.43;2.30;;;4.90;99.90;;;;;;4969926;28;20166;-59
2023/12/12 02:00:56;;;;;;;5.43;2.55;;;4.80;99.90;;;;;;4969648;28;20057;-59
2023/12/12 02:03:23;;;;;;;7.95;2.65;;;4.80;99.90;;;;;;4968540;28;20041;-58
2023/12/12 02:05:49;;;;;;;12.45;3.38;;;4.80;99.90;;;;;;4973193;28;20054;-58
2023/12/12 02:08:16;;;;;;;6.70;2.42;;;4.80;99.90;;;;;;4972642;28;20045;-58
2023/12/12 02:10:42;;;;;;;6.28;2.58;;;4.80;99.90;;;;;;4978985;28;20140;-58
2023/12/12 02:13:08;;;;;;;6.88;2.78;;;4.70;99.90;;;;;;4975693;28;20547;-57
2023/12/12 02:15:34;;;;;;;5.70;2.75;;;4.70;99.90;;;;;;4973799;28;20053;-59
2023/12/12 02:17:59;;;;;;;8.02;2.78;;;4.70;99.90;;;;;;4971345;28;20042;-58
2023/12/12 02:20:25;;;;;;;10.05;3.15;;;4.60;99.90;;;;;;4972323;28;20046;-59
2023/12/12 02:22:51;;;;;;;9.75;2.83;;;4.60;99.90;;;;;;4970460;28;20620;-58
2023/12/12 02:25:18;;;;;;;10.20;3.40;;;4.70;99.90;;;;;;4972100;28;25260;-57
2023/12/12 02:27:46;;;;;;;7.93;2.92;;;4.60;99.90;;;;;;4963890;28;20053;-59
2023/12/12 02:30:14;;;;;;;11.23;2.70;;;4.60;99.90;;;;;;4968757;28;20096;-57
2023/12/12 02:32:40;;;;;;;11.45;3.00;;;4.60;99.90;;;;;;4952605;28;20042;-58
2023/12/12 02:35:05;;;;;;;11.48;3.22;;;4.50;99.90;;;;;;4969978;28;20127;-58
2023/12/12 02:37:31;;;;;;;6.10;3.28;;;4.50;99.90;;;;;;4955112;28;20042;-57
2023/12/12 02:39:57;;;;;;;11.50;3.53;;;4.50;99.90;;;;;;4939718;28;20495;-59
2023/12/12 02:42:23;;;;;;;11.10;3.88;;;4.50;99.90;;;;;;4966840;28;20479;-58
2023/12/12 02:44:48;;;;;;;10.18;3.80;;;4.50;99.90;;;;;;4968357;28;20515;-58
2023/12/12 02:47:14;;;;;;;9.30;3.88;;;4.40;99.90;;;;;;4960973;28;20581;-58
2023/12/12 02:49:40;;;;;;;7.60;3.67;;;4.40;99.90;;;;;;4956918;28;20049;-58
2023/12/12 02:52:05;;;;;;;9.63;3.90;;;4.40;99.90;;;;;;4966910;28;20186;-58
2023/12/12 02:54:31;;;;;;;8.18;4.38;;;4.40;99.90;;;;;;4954031;28;20125;-56
2023/12/12 02:56:57;;;;;;;10.38;4.47;;;4.30;99.90;;;;;;4968024;28;20073;-56
2023/12/12 02:59:22;;;;;;;11.70;3.85;;;4.30;99.90;;;;;;4967860;28;20042;-58
2023/12/12 03:01:48;;;;;;;11.25;4.30;;;4.30;99.90;;;;;;4970884;28;20046;-57
2023/12/12 03:04:14;;;;;;;5.30;3.47;;;4.20;99.90;;;;;;4952185;28;20639;-58
2023/12/12 03:06:40;;;;;;;8.77;3.28;;;4.20;99.90;;;;;;4967817;28;20049;-58
2023/12/12 03:09:06;;;;;;;7.78;3.30;;;4.20;99.90;;;;;;4969179;28;20038;-58
2023/12/12 03:11:34;;;;;;;11.95;3.55;;;4.10;99.90;;;;;;4963024;28;20041;-58
2023/12/12 03:14:00;;;;;;;11.00;3.88;;;4.20;99.90;;;;;;4968995;28;20085;-57
2023/12/12 03:16:26;;;;;;;9.90;4.80;;;4.10;99.90;;;;;;4965494;28;20465;-59
2023/12/12 03:18:52;;;;;;;10.57;4.90;;;4.20;99.90;;;;;;4971450;28;20050;-59
2023/12/12 03:21:17;;;;;;;8.48;3.75;;;4.10;99.90;;;;;;4969730;28;20402;-57
2023/12/12 03:23:43;;;;;;;12.32;3.78;;;4.20;99.90;;;;;;4966000;28;20053;-59
2023/12/12 03:26:11;;;;;;;10.98;3.85;;;4.10;99.90;;;;;;4950592;28;20615;-57
2023/12/12 03:28:37;;;;;;;8.65;4.55;;;4.10;99.90;;;;;;4969274;28;20046;-57
2023/12/12 03:31:04;;;;;;;12.55;4.78;;;4.10;99.90;;;;;;4969303;28;20529;-56
2023/12/12 03:33:30;;;;;;;10.05;4.05;;;4.20;99.90;;;;;;4950873;28;20049;-57
2023/12/12 03:35:55;;;;;;;8.85;3.75;;;4.20;99.90;;;;;;4969461;28;20054;-59
2023/12/12 03:38:21;;;;;;;7.80;3.58;;;4.20;99.90;;;;;;4935585;28;20053;-57
2023/12/12 03:40:47;;;;;;;9.25;3.42;;;4.20;99.90;;;;;;4950734;28;20099;-58
2023/12/12 03:43:14;;;;;;;9.38;3.80;;;4.30;99.90;;;;;;4967791;28;20660;-58
2023/12/12 03:45:40;;;;;;;7.85;3.10;;;4.20;99.90;;;;;;4971551;28;20050;-57
2023/12/12 03:48:06;;;;;;;6.72;3.08;;;4.20;99.90;;;;;;4955500;28;20682;-57
2023/12/12 03:50:32;;;;;;;12.25;4.25;;;4.20;99.90;;;;;;4927722;28;20069;-58
2023/12/12 03:52:58;;;;;;;6.88;3.13;;;4.30;99.90;;;;;;4962638;28;20104;-57
2023/12/12 03:55:23;;;;;;;7.90;3.75;;;4.20;99.90;;;;;;4951993;28;22722;-57
2023/12/12 03:57:49;;;;;;;8.88;3.78;;;4.10;99.90;;;;;;4950577;28;20062;-58
2023/12/12 04:00:15;;;;;;;10.60;4.20;;;4.10;99.90;;;;;;4954841;28;20477;-59
2023/12/12 04:02:41;;;;;;;10.90;4.25;;;4.10;99.90;;;;;;4967797;28;20065;-58
2023/12/12 04:05:10;;;;;;;12.02;4.20;;;4.10;99.90;;;;;;4972904;28;20151;-57
2023/12/12 04:07:37;;;;;;;18.13;4.07;;;4.10;99.90;;;;;;4977137;28;21367;-59
2023/12/12 04:10:05;;;;;;;14.07;4.15;;;4.10;99.90;;;;;;4969771;28;20050;-58
2023/12/12 04:12:30;;;;;;;7.10;3.42;;;4.10;99.90;;;;;;4969421;28;20133;-58
2023/12/12 04:14:56;;;;;;;6.70;3.55;;;4.10;99.90;;;;;;4979789;28;20462;-58
2023/12/12 04:17:22;;;;;;;8.98;3.80;;;4.10;99.90;;;;;;4982516;28;20057;-58
2023/12/12 04:19:47;;;;;;;7.50;4.03;;;4.10;99.90;;;;;;4963287;28;20053;-57
2023/12/12 04:22:13;;;;;;;9.02;3.80;;;4.10;99.90;;;;;;4978912;28;20049;-57
2023/12/12 04:24:39;;;;;;;10.63;3.67;;;4.10;99.90;;;;;;4979340;28;20046;-58
2023/12/12 04:27:04;;;;;;;14.43;4.03;;;4.00;99.90;;;;;;4972073;28;20081;-59
2023/12/12 04:29:30;;;;;;;15.15;4.40;;;4.00;99.90;;;;;;4971152;28;20050;-58
2023/12/12 04:31:56;;;;;;;12.00;4.50;;;4.00;99.90;;;;;;4966746;28;20398;-58
2023/12/12 04:34:22;;;;;;;10.88;4.40;;;4.00;99.90;;;;;;4968237;28;20458;-57
2023/12/12 04:36:48;;;;;;;12.63;4.53;;;4.00;99.90;;;;;;4963625;28;20042;-58
2023/12/12 04:39:20;;;;;;;13.07;4.00;;;4.00;99.90;;;;;;4949200;28;20379;-57
2023/12/12 04:41:45;;;;;;;14.63;4.30;;;4.00;99.90;;;;;;4967935;28;20062;-58
2023/12/12 04:44:11;;;;;;;14.63;5.05;;;4.00;99.90;;;;;;4972845;28;20097;-58
2023/12/12 04:46:37;;;;;;;10.20;5.00;;;4.00;99.90;;;;;;4975979;28;20126;-57
2023/12/12 04:49:03;;;;;;;9.88;5.30;;;4.00;99.90;;;;;;4965764;28;20052;-57
2023/12/12 04:51:32;;;;;;;14.38;5.35;;;4.00;99.90;;;;;;4967034;28;20532;-58
2023/12/12 04:53:57;;;;;;;11.85;5.13;;;4.00;99.90;;;;;;4965506;28;21221;-58
2023/12/12 04:56:23;;;;;;;14.70;5.10;;;4.00;99.90;;;;;;4966980;28;20505;-58
2023/12/12 04:58:49;;;;;;;9.90;4.50;;;4.00;99.90;;;;;;4966023;28;20050;-58
2023/12/12 05:01:16;;;;;;;11.05;5.40;;;4.00;99.90;;;;;;4946933;28;20046;-59
2023/12/12 05:03:41;;;;;;;8.88;4.68;;;4.00;99.90;;;;;;4969445;28;20698;-57
2023/12/12 05:06:09;;;;;;;11.23;5.30;;;4.10;99.90;;;;;;4952695;28;20049;-58
2023/12/12 05:08:35;;;;;;;11.60;4.78;;;4.00;99.90;;;;;;4959201;28;20038;-58
2023/12/12 05:11:01;;;;;;;11.88;5.60;;;4.00;99.90;;;;;;4958928;28;20115;-58
2023/12/12 05:13:26;;;;;;;10.65;4.78;;;4.00;99.90;;;;;;4970106;28;21198;-59
2023/12/12 05:15:52;;;;;;;9.43;4.65;;;3.90;99.90;;;;;;4952810;28;20121;-58
2023/12/12 05:18:18;;;;;;;12.05;4.20;;;4.00;99.90;;;;;;4970156;28;20043;-59
2023/12/12 05:20:44;;;;;;;11.13;4.97;;;4.00;99.90;;;;;;4968242;28;20453;-57
2023/12/12 05:23:11;;;;;;;13.02;4.57;;;3.90;99.90;;;;;;4970243;28;20045;-57
2023/12/12 05:25:37;;;;;;;11.20;5.15;;;4.00;99.90;;;;;;4965480;28;20070;-59
2023/12/12 05:28:02;;;;;;;16.60;5.07;;;4.00;99.90;;;;;;4981475;28;20604;-58
2023/12/12 05:30:28;;;;;;;13.32;4.90;;;4.00;99.90;;;;;;4979823;28;21037;-59
2023/12/12 05:32:54;;;;;;;10.00;4.22;;;3.90;99.90;;;;;;4979268;28;20061;-59
2023/12/12 05:35:20;;;;;;;11.13;4.95;;;3.90;99.90;;;;;;4978057;28;20678;-57
2023/12/12 05:37:45;;;;;;;11.48;4.97;;;3.90;99.90;;;;;;4958304;28;20088;-59
2023/12/12 05:40:14;;;;;;;15.48;4.75;;;3.90;99.90;;;;;;4974587;28;20173;-58
2023/12/12 05:42:41;;;;;;;14.25;4.57;;;3.90;99.90;;;;;;4970408;28;20050;-57
2023/12/12 05:45:07;;;;;;;11.23;4.97;;;3.90;99.90;;;;;;4954300;28;20065;-58
2023/12/12 05:47:33;;;;;;;9.60;4.47;;;3.90;99.90;;;;;;4973289;28;20050;-56
2023/12/12 05:49:59;;;;;;;13.02;5.32;;;3.90;99.90;;;;;;4960531;28;20052;-57
2023/12/12 05:52:28;;;;;;;9.80;4.68;;;3.80;99.90;;;;;;4972275;28;22378;-58
2023/12/12 05:54:53;;;;;;;14.30;5.47;;;3.80;99.90;;;;;;4971811;28;20632;-58
2023/12/12 05:57:19;;;;;;;13.88;4.93;;;3.80;99.90;;;;;;4958337;28;20081;-57
2023/12/12 05:59:46;;;;;;;13.90;5.00;;;3.80;99.90;;;;;;4938775;28;20068;-58
2023/12/12 06:02:12;;;;;;;10.75;4.38;;;3.80;99.90;;;;;;4971885;28;20075;-57
2023/12/12 06:04:38;;;;;;;10.65;5.45;;;3.70;99.90;;;;;;4968132;28;20611;-59
2023/12/12 06:07:05;;;;;;;12.68;5.50;;;3.80;99.90;;;;;;4956222;28;20124;-58
2023/12/12 06:09:31;;;;;;;16.23;6.57;;;3.80;99.90;;;;;;4974236;28;20379;-58
2023/12/12 06:11:58;;;;;;;14.60;6.00;;;3.80;99.90;;;;;;4967629;28;20053;-58
2023/12/12 06:14:23;;;;;;;14.35;5.88;;;3.80;99.90;;;;;;4969483;28;20046;-58
2023/12/12 06:16:49;;;;;;;17.00;6.53;;;3.90;99.90;;;;;;4967246;28;20072;-58
2023/12/12 06:19:15;;;;;;;17.90;6.22;;;3.90;99.90;;;;;;4968231;28;20046;-59
2023/12/12 06:21:40;;;;;;;13.63;5.93;;;3.90;99.90;;;;;;4947675;28;20475;-58
2023/12/12 06:24:07;;;;;;;14.85;6.80;;;4.00;99.90;;;;;;4953655;28;20489;-58
2023/12/12 06:26:34;;;;;;;13.63;6.38;;;3.90;99.90;;;;;;4972391;28;20140;-57
2023/12/12 06:29:00;;;;;;;16.10;6.22;;;3.90;99.90;;;;;;4974987;28;20057;-57
2023/12/12 06:31:25;;;;;;;12.18;6.00;;;4.00;99.90;;;;;;4964952;28;20311;-58
2023/12/12 06:33:52;;;;;;;17.08;6.53;;;3.90;99.90;;;;;;4978176;28;20048;-57
2023/12/12 06:36:18;;;;;;;13.27;6.82;;;3.90;99.90;;;;;;4964163;28;21155;-58
2023/12/12 06:38:44;;;;;;;20.15;7.38;;;3.90;99.90;;;;;;4966642;28;21924;-58
2023/12/12 06:41:10;;;;;;;18.85;7.15;;;3.90;99.90;;;;;;4976216;28;20050;-58
2023/12/12 06:43:36;;;;;;;17.85;7.68;;;3.90;99.90;;;;;;4977019;28;20057;-58
2023/12/12 06:46:02;;;;;;;20.50;7.60;;;3.80;99.90;;;;;;4960633;28;20107;-58
2023/12/12 06:48:28;;;;;;;24.98;7.72;;;3.80;99.90;;;;;;4978417;28;20541;-59
2023/12/12 06:50:54;;;;;;;17.83;7.18;;;3.80;99.90;;;;;;4980199;28;20435;-57
2023/12/12 06:53:20;;;;;;;13.75;7.38;;;3.80;99.90;;;;;;4979877;28;20049;-59
2023/12/12 06:55:47;;;;;;;15.43;7.57;;;3.80;99.90;;;;;;4963358;28;20048;-58
2023/12/12 06:58:16;;;;;;;20.30;7.75;;;3.80;99.90;;;;;;4980372;28;20065;-58
2023/12/12 07:00:43;;;;;;;19.42;8.32;;;3.80;99.90;;;;;;4979964;28;20487;-58
2023/12/12 07:03:12;;;;;;;17.52;7.93;;;3.80;99.90;;;;;;4973617;28;20396;-58
2023/12/12 07:05:39;;;;;;;23.52;8.75;;;3.80;99.90;;;;;;4981225;28;20054;-56
2023/12/12 07:08:05;;;;;;;14.48;7.72;;;3.80;99.90;;;;;;4978995;28;20053;-57
2023/12/12 07:10:31;;;;;;;21.67;8.57;;;3.80;99.90;;;;;;4979572;28;20842;-58
2023/12/12 07:12:58;;;;;;;20.52;8.70;;;3.90;99.90;;;;;;4975488;28;20060;-58
2023/12/12 07:15:25;;;;;;;19.77;9.05;;;3.90;99.90;;;;;;4980729;28;20057;-58
2023/12/12 07:17:51;;;;;;;20.15;9.25;;;3.90;99.90;;;;;;4976302;28;20174;-58
2023/12/12 07:20:17;;;;;;;19.48;9.15;;;3.80;99.90;;;;;;4959031;28;20061;-58
2023/12/12 07:22:43;;;;;;;20.73;9.10;;;3.90;99.90;;;;;;4982758;28;20441;-58
2023/12/12 07:25:08;;;;;;;18.02;9.10;;;3.80;99.90;;;;;;4964919;28;20046;-59
2023/12/12 07:27:34;;;;;;;17.75;9.10;;;3.90;99.90;;;;;;4981424;28;21029;-59
2023/12/12 07:30:00;;;;;;;20.48;9.90;;;3.90;99.90;;;;;;4983840;28;20037;-59
2023/12/12 07:32:29;;;;;;;20.10;9.63;;;3.90;99.90;;;;;;4981666;28;20107;-59
2023/12/12 07:34:54;;;;;;;21.08;9.77;;;3.90;99.90;;;;;;4972489;28;20128;-59
2023/12/12 07:37:20;;;;;;;20.25;10.05;;;3.90;99.90;;;;;;4981538;28;20044;-58
2023/12/12 07:39:46;;;;;;;26.70;9.90;;;3.80;99.90;;;;;;4977050;28;20049;-58
2023/12/12 07:42:13;;;;;;;20.58;10.60;;;3.90;99.90;;;;;;4970489;28;20065;-58
2023/12/12 07:44:39;;;;;;;69.18;12.18;;;3.90;99.90;;;;;;4982473;28;20037;-58
2023/12/12 07:47:06;;;;;;;34.85;10.90;;;3.90;99.90;;;;;;4979162;28;20054;-58
2023/12/12 07:49:32;;;;;;;49.85;13.98;;;3.80;99.90;;;;;;4978512;28;20498;-59
2023/12/12 07:51:58;;;;;;;135.20;13.57;;;3.90;99.90;;;;;;4980804;28;20049;-58
2023/12/12 07:54:23;;;;;;;124.00;14.68;;;3.90;99.90;;;;;;4980656;28;20577;-59
2023/12/12 07:56:49;;;;;;;120.90;13.05;;;3.90;99.90;;;;;;4978787;28;20065;-58
2023/12/12 07:59:15;;;;;;;107.78;13.05;;;3.90;99.90;;;;;;4968933;28;20068;-59
2023/12/12 08:01:40;;;;;;;84.78;14.77;;;3.90;99.90;;;;;;4977774;28;20053;-57
2023/12/12 08:04:06;;;;;;;151.93;15.55;;;4.00;99.90;;;;;;4967161;28;20056;-58
2023/12/12 08:06:32;;;;;;;60.42;13.23;;;3.90;99.90;;;;;;4979351;28;20474;-58
2023/12/12 08:08:59;;;;;;;69.40;13.05;;;4.00;99.90;;;;;;4980742;28;20042;-58
2023/12/12 08:11:27;;;;;;;126.78;16.60;;;4.00;99.90;;;;;;4982214;28;20088;-58
2023/12/12 08:13:56;;;;;;;65.03;13.57;;;4.00;99.90;;;;;;4984465;28;20046;-58
2023/12/12 08:16:23;;;;;;;99.70;16.00;;;4.00;99.90;;;;;;4972916;28;20049;-59
2023/12/12 08:18:49;;;;;;;140.90;17.90;;;4.00;99.90;;;;;;4981172;28;20120;-59
2023/12/12 08:21:17;;;;;;;94.00;16.95;;;4.10;99.90;;;;;;4966343;28;20544;-58
2023/12/12 08:23:43;;;;;;;39.42;14.52;;;4.10;99.90;;;;;;4985424;28;20076;-59
2023/12/12 08:26:10;;;;;;;104.85;18.73;;;4.10;99.90;;;;;;4982285;28;20412;-59
2023/12/12 08:28:36;;;;;;;43.58;15.38;;;4.20;99.90;;;;;;4969864;28;20054;-59
2023/12/12 08:31:02;;;;;;;101.18;17.73;;;4.20;99.90;;;;;;4982879;28;20553;-58
2023/12/12 08:33:27;;;;;;;55.25;16.63;;;4.20;99.90;;;;;;4982100;28;20086;-59
2023/12/12 08:35:53;;;;;;;43.53;16.58;;;4.20;99.90;;;;;;4973209;28;20053;-58
2023/12/12 08:38:19;;;;;;;62.03;19.92;;;4.30;99.90;;;;;;4967146;28;20054;-58
2023/12/12 08:40:45;;;;;;;52.08;19.17;;;4.30;99.90;;;;;;4969292;28;20053;-59
2023/12/12 08:43:10;;;;;;;45.78;19.65;;;4.30;99.90;;;;;;4946111;28;20533;-58
2023/12/12 08:45:36;;;;;;;59.17;20.25;;;4.30;99.90;;;;;;4977375;28;20056;-59
2023/12/12 08:48:02;;;;;;;44.60;18.33;;;4.40;99.90;;;;;;4995561;28;20053;-58
2023/12/12 08:50:28;;;;;;;51.78;21.98;;;4.50;99.90;;;;;;4993481;28;20053;-58
2023/12/12 08:52:54;;;;;;;56.55;22.30;;;4.50;99.90;;;;;;4984653;28;20073;-59
2023/12/12 08:55:20;;;;;;;61.67;23.42;;;4.50;99.90;;;;;;4994037;28;20125;-59
2023/12/12 08:57:47;;;;;;;51.47;22.30;;;4.60;99.90;;;;;;4991640;28;20080;-59
2023/12/12 09:00:13;;;;;;;57.08;23.17;;;4.70;99.90;;;;;;4994935;28;20046;-59
2023/12/12 09:02:41;;;;;;;57.00;24.48;;;4.80;99.90;;;;;;4993466;28;20046;-58
2023/12/12 09:05:08;;;;;;;65.57;24.83;;;4.80;99.90;;;;;;4974114;28;20135;-58
2023/12/12 09:07:34;;;;;;;48.13;22.75;;;4.90;99.90;;;;;;4991986;28;20042;-59
2023/12/12 09:10:02;;;;;;;56.13;23.90;;;4.90;99.90;;;;;;4993200;28;20044;-58
2023/12/12 09:12:28;;;;;;;58.28;24.05;;;4.90;99.90;;;;;;4996324;28;20046;-59
2023/12/12 09:14:54;;;;;;;116.43;27.50;;;4.90;99.90;;;;;;4997356;28;20046;-59
2023/12/12 09:17:19;;;;;;;130.90;28.08;;;5.00;99.90;;;;;;4984827;28;20570;-58
2023/12/12 09:19:45;;;;;;;134.65;29.38;;;4.90;99.90;;;;;;4988540;28;20045;-59
2023/12/12 09:22:11;;;;;;;120.95;29.00;;;5.00;99.90;;;;;;4976789;28;20391;-59
2023/12/12 09:24:37;;;;;;;207.10;31.27;;;5.10;99.90;;;;;;4994317;28;20129;-58
2023/12/12 09:27:03;;;;;;;134.00;25.88;;;5.10;99.90;;;;;;4986051;28;20470;-59
2023/12/12 09:29:29;;;;;;;199.02;31.23;;;5.10;99.90;;;;;;4991710;28;20042;-58
2023/12/12 09:31:56;;;;;;;211.80;28.63;;;5.20;99.90;;;;;;4972747;28;20050;-59
2023/12/12 09:34:23;;;;;;;135.00;28.38;;;5.20;99.90;;;;;;4990478;28;20050;-58
2023/12/12 09:36:51;;;;;;;92.68;23.50;;;5.20;99.90;;;;;;4987411;28;20050;-59
2023/12/12 09:39:20;;;;;;;175.73;25.95;;;5.20;99.90;;;;;;4991746;28;20056;-58
2023/12/12 09:41:47;;;;;;;144.43;25.90;;;5.20;99.90;;;;;;4990849;28;20046;-59
2023/12/12 09:44:17;;;;;;;145.90;25.67;;;5.20;99.90;;;;;;4974905;28;20495;-59
2023/12/12 09:46:44;;;;;;;109.63;25.33;;;5.10;99.90;;;;;;4990960;28;20483;-58
2023/12/12 09:49:11;;;;;;;128.05;26.92;;;5.20;99.90;;;;;;4970239;28;20054;-58
2023/12/12 09:51:50;;;;;;;80.68;22.80;;;5.20;99.90;;;;;;4985583;28;20044;-58
2023/12/12 09:54:18;;;;;;;68.43;23.17;;;5.20;99.90;;;;;;4969866;28;20038;-59
2023/12/12 09:56:46;;;;;;;75.88;22.90;;;5.10;99.90;;;;;;4985563;28;20038;-59
2023/12/12 09:59:12;;;;;;;43.97;21.00;;;5.20;99.90;;;;;;4979711;28;20050;-59
2023/12/12 10:01:41;;;;;;;80.25;22.73;;;5.10;99.90;;;;;;4985453;28;20096;-58
2023/12/12 10:04:08;;;;;;;96.00;24.80;;;5.10;99.90;;;;;;4992836;28;20522;-58
2023/12/12 10:06:49;;;;;;;48.38;20.85;;;5.20;99.90;;;;;;4978925;28;20115;-58
2023/12/12 10:09:15;;;;;;;38.03;19.77;;;5.20;99.90;;;;;;4991052;28;20108;-59
2023/12/12 10:11:41;;;;;;;57.50;20.95;;;5.20;99.90;;;;;;4961496;28;20049;-58
2023/12/12 10:14:08;;;;;;;58.30;21.45;;;5.20;99.90;;;;;;4989809;28;20504;-59
2023/12/12 10:16:34;;;;;;;50.20;21.60;;;5.20;99.90;;;;;;4985056;28;20046;-59
2023/12/12 10:19:03;;;;;;;100.93;22.25;;;5.20;99.90;;;;;;4983642;28;20124;-58
2023/12/12 10:21:29;;;;;;;54.55;20.60;;;5.20;99.90;;;;;;4983867;28;20037;-59
2023/12/12 10:23:56;;;;;;;51.60;20.95;;;5.20;99.90;;;;;;4967381;28;20042;-59
2023/12/12 10:26:32;;;;;;;53.60;21.23;;;5.20;99.90;;;;;;4983088;28;20054;-57
2023/12/12 10:28:59;;;;;;;72.32;22.27;;;5.20;99.90;;;;;;4984703;28;20073;-59
2023/12/12 10:31:25;;;;;;;59.80;21.55;;;5.20;99.90;;;;;;4982377;28;20038;-57
2023/12/12 10:33:53;;;;;;;59.35;22.23;;;5.30;99.90;;;;;;4980569;28;20354;-58
2023/12/12 10:36:19;;;;;;;51.17;20.83;;;5.30;99.90;;;;;;4984339;28;20077;-59
2023/12/12 10:38:44;;;;;;;55.60;22.73;;;5.30;99.90;;;;;;4982196;28;20130;-58
2023/12/12 10:41:15;;;;;;;45.78;21.15;;;5.30;99.90;;;;;;4977282;28;20513;-59
2023/12/12 10:43:43;;;;;;;52.65;22.75;;;5.40;99.90;;;;;;4980815;28;20510;-59
2023/12/12 10:46:19;;;;;;;51.63;22.67;;;5.40;99.90;;;;;;4980930;28;20054;-58
2023/12/12 10:48:46;;;;;;;49.47;22.30;;;5.40;99.90;;;;;;4979885;28;20092;-59
2023/12/12 10:51:13;;;;;;;74.97;23.35;;;5.50;99.90;;;;;;4980019;28;20081;-58
2023/12/12 10:53:44;;;;;;;65.22;21.88;;;5.50;99.90;;;;;;4947429;28;20134;-58
2023/12/12 10:56:11;;;;;;;64.20;21.33;;;5.50;99.90;;;;;;4980897;28;26169;-59
2023/12/12 10:58:39;;;;;;;31.55;18.17;;;5.50;99.90;;;;;;4982730;28;20076;-59
2023/12/12 11:01:07;;;;;;;51.17;19.80;;;5.40;99.90;;;;;;4982966;28;20042;-59
2023/12/12 11:03:37;;;;;;;35.25;18.08;;;5.50;99.90;;;;;;4984562;28;20403;-58
2023/12/12 11:06:05;;;;;;;45.28;18.45;;;5.50;99.90;;;;;;4984056;28;20267;-59
2023/12/12 11:08:31;;;;;;;39.92;18.48;;;5.60;99.90;;;;;;4979289;28;20045;-59
2023/12/12 11:11:00;;;;;;;33.42;19.33;;;5.60;99.90;;;;;;4979856;28;20658;-59
2023/12/12 11:13:29;;;;;;;39.13;18.58;;;5.60;99.90;;;;;;4980778;28;20057;-59
2023/12/12 11:15:57;;;;;;;36.15;17.85;;;5.60;99.90;;;;;;4950711;28;20069;-57
2023/12/12 11:18:23;;;;;;;41.88;18.83;;;5.60;99.90;;;;;;4971194;28;20069;-58
2023/12/12 11:20:49;;;;;;;41.70;18.40;;;5.60;99.90;;;;;;4980222;28;20431;-58
2023/12/12 11:23:46;;;;;;;32.00;18.17;;;5.60;99.90;;;;;;4978616;28;20519;-58
2023/12/12 11:26:16;;;;;;;44.35;18.30;;;5.60;99.90;;;;;;4986208;28;20053;-57
2023/12/12 11:28:45;;;;;;;32.85;17.17;;;5.60;99.90;;;;;;4984407;28;20524;-58
2023/12/12 11:31:19;;;;;;;32.22;17.40;;;5.60;99.90;;;;;;4985626;28;20724;-57
2023/12/12 11:34:03;;;;;;;32.67;17.70;;;5.60;99.90;;;;;;4985918;28;20457;-58
2023/12/12 11:36:28;;;;;;;33.65;17.63;;;5.60;99.90;;;;;;4987316;28;20679;-59
2023/12/12 11:39:00;;;;;;;37.58;18.88;;;5.60;99.90;;;;;;4983398;28;20530;-58
2023/12/12 11:41:27;;;;;;;35.72;18.25;;;5.70;99.90;;;;;;4963828;28;20054;-59
2023/12/12 11:43:54;;;;;;;31.45;18.42;;;5.70;99.90;;;;;;4982820;28;20136;-59
2023/12/12 11:46:21;;;;;;;29.50;18.05;;;5.70;99.90;;;;;;4979558;28;20289;-59
2023/12/12 11:48:47;;;;;;;33.15;18.60;;;5.70;99.90;;;;;;4965145;28;20129;-58
2023/12/12 11:51:53;;;;;;;31.48;18.73;;;5.80;99.90;;;;;;4982019;28;20160;-59
2023/12/12 11:54:27;;;;;;;32.78;19.08;;;5.80;99.90;;;;;;4906689;29;20051;-58
2023/12/12 11:56:57;;;;;;;30.23;19.15;;;5.80;99.90;;;;;;4909062;29;20043;-57
2023/12/12 11:59:24;;;;;;;33.30;20.02;;;5.80;99.90;;;;;;4948593;28;20057;-58
2023/12/12 12:01:51;;;;;;;32.85;19.25;;;5.80;99.90;;;;;;4982330;28;20046;-58
2023/12/12 12:04:17;;;;;;;37.65;20.67;;;5.80;99.90;;;;;;4980956;28;20612;-59
2023/12/12 12:06:43;;;;;;;36.30;20.67;;;5.80;99.90;;;;;;4981536;28;20058;-59
2023/12/12 12:09:11;;;;;;;37.47;21.55;;;5.90;99.90;;;;;;4978241;28;20050;-59
2023/12/12 12:11:43;;;;;;;37.60;22.35;;;5.90;99.90;;;;;;4980671;28;20050;-59
2023/12/12 12:14:11;;;;;;;41.88;21.92;;;5.90;99.90;;;;;;4978238;28;20480;-58
2023/12/12 12:16:37;;;;;;;40.53;23.55;;;5.90;99.90;;;;;;4965831;28;20053;-59
2023/12/12 12:19:31;;;;;;;40.40;23.98;;;5.90;99.90;;;;;;4978496;28;20034;-59
2023/12/12 12:22:08;;;;;;;40.67;23.90;;;5.90;99.90;;;;;;4979676;28;20634;-59
2023/12/12 12:24:54;;;;;;;44.83;25.55;;;5.90;99.90;;;;;;4962426;28;20057;-59
2023/12/12 12:27:20;;;;;;;43.92;25.52;;;6.00;99.90;;;;;;4979401;28;20062;-59
2023/12/12 12:30:05;;;;;;;49.17;27.70;;;6.00;99.90;;;;;;4980397;28;20046;-59
2023/12/12 12:32:32;;;;;;;47.17;27.10;;;6.00;99.90;;;;;;4963908;28;20058;-59
2023/12/12 12:35:11;;;;;;;48.15;26.85;;;6.00;99.90;;;;;;4978959;28;20509;-59
2023/12/12 12:37:38;;;;;;;50.50;28.10;;;6.00;99.90;;;;;;4978554;28;20399;-59
2023/12/12 12:40:06;;;;;;;51.03;27.58;;;6.00;99.90;;;;;;4980447;28;20077;-60
2023/12/12 12:42:39;;;;;;;50.05;28.02;;;6.10;99.90;;;;;;4969348;28;20062;-59
2023/12/12 12:45:06;;;;;;;52.47;28.25;;;6.10;99.90;;;;;;4969820;28;20054;-59